sensor_id;sensor_type;location;lat;lon;timestamp;pressure;altitude;pressure_sealevel;temperature;humidity
71774;BME280;59607;52.130;5.430;2023-12-22T00:02:24;100279.16;;;6.85;100.00
71774;BME280;59607;52.130;5.430;2023-12-22T00:04:55;100290.50;;;6.75;100.00
71774;BME280;59607;52.130;5.430;2023-12-22T00:07:25;100301.84;;;6.66;100.00
71774;BME280;59607;52.130;5.430;2023-12-22T00:09:55;100301.00;;;6.47;100.00
71774;BME280;59607;52.130;5.430;2023-12-22T00:12:25;100318.72;;;6.25;100.00
71774;BME280;59607;52.130;5.430;2023-12-22T00:14:51;100351.00;;;6.14;100.00
71774;BME280;59607;52.130;5.430;2023-12-22T00:17:28;100317.22;;;6.04;100.00
71774;BME280;59607;52.130;5.430;2023-12-22T00:19:58;100317.47;;;6.01;100.00
71774;BME280;59607;52.130;5.430;2023-12-22T00:22:29;100318.41;;;6.00;100.00
71774;BME280;59607;52.130;5.430;2023-12-22T00:24:56;100326.38;;;5.99;100.00
71774;BME280;59607;52.130;5.430;2023-12-22T00:27:25;100311.03;;;5.96;100.00
71774;BME280;59607;52.130;5.430;2023-12-22T00:29:55;100320.13;;;5.91;100.00
71774;BME280;59607;52.130;5.430;2023-12-22T00:32:21;100326.28;;;5.90;100.00
71774;BME280;59607;52.130;5.430;2023-12-22T00:34:55;100324.66;;;5.89;100.00
71774;BME280;59607;52.130;5.430;2023-12-22T00:37:26;100331.47;;;5.90;100.00
71774;BME280;59607;52.130;5.430;2023-12-22T00:39:53;100347.91;;;5.91;100.00
71774;BME280;59607;52.130;5.430;2023-12-22T00:42:23;100318.47;;;5.90;100.00
71774;BME280;59607;52.130;5.430;2023-12-22T00:44:49;100312.59;;;5.88;100.00
71774;BME280;59607;52.130;5.430;2023-12-22T00:47:16;100315.06;;;5.90;100.00
71774;BME280;59607;52.130;5.430;2023-12-22T00:49:42;100325.19;;;5.93;100.00
71774;BME280;59607;52.130;5.430;2023-12-22T00:52:09;100318.84;;;5.96;100.00
71774;BME280;59607;52.130;5.430;2023-12-22T00:54:36;100334.63;;;5.94;100.00
71774;BME280;59607;52.130;5.430;2023-12-22T00:57:07;100328.63;;;5.93;100.00
71774;BME280;59607;52.130;5.430;2023-12-22T00:59:33;100349.69;;;5.90;100.00
71774;BME280;59607;52.130;5.430;2023-12-22T01:02:15;100337.38;;;5.92;100.00
71774;BME280;59607;52.130;5.430;2023-12-22T01:04:44;100344.88;;;5.96;100.00
71774;BME280;59607;52.130;5.430;2023-12-22T01:07:12;100358.28;;;6.01;100.00
71774;BME280;59607;52.130;5.430;2023-12-22T01:09:40;100358.88;;;6.04;100.00
71774;BME280;59607;52.130;5.430;2023-12-22T01:12:10;100360.19;;;6.09;100.00
71774;BME280;59607;52.130;5.430;2023-12-22T01:14:44;100353.75;;;6.13;100.00
71774;BME280;59607;52.130;5.430;2023-12-22T01:17:17;100369.09;;;6.16;100.00
71774;BME280;59607;52.130;5.430;2023-12-22T01:19:44;100358.66;;;6.16;100.00
71774;BME280;59607;52.130;5.430;2023-12-22T01:22:15;100369.09;;;6.16;100.00
71774;BME280;59607;52.130;5.430;2023-12-22T01:24:41;100362.59;;;6.20;100.00
71774;BME280;59607;52.130;5.430;2023-12-22T01:27:10;100345.34;;;6.19;100.00
71774;BME280;59607;52.130;5.430;2023-12-22T01:29:39;100362.59;;;6.20;100.00
71774;BME280;59607;52.130;5.430;2023-12-22T01:32:14;100355.91;;;6.17;100.00
71774;BME280;59607;52.130;5.430;2023-12-22T01:34:46;100349.06;;;6.16;100.00
71774;BME280;59607;52.130;5.430;2023-12-22T01:37:12;100359.91;;;6.12;100.00
71774;BME280;59607;52.130;5.430;2023-12-22T01:39:39;100343.94;;;6.07;100.00
71774;BME280;59607;52.130;5.430;2023-12-22T01:42:11;100353.66;;;6.04;100.00
71774;BME280;59607;52.130;5.430;2023-12-22T01:44:38;100348.56;;;6.03;100.00
71774;BME280;59607;52.130;5.430;2023-12-22T01:47:04;100351.31;;;6.01;100.00
71774;BME280;59607;52.130;5.430;2023-12-22T01:49:33;100344.44;;;6.00;100.00
71774;BME280;59607;52.130;5.430;2023-12-22T01:52:00;100333.53;;;5.97;100.00
71774;BME280;59607;52.130;5.430;2023-12-22T01:54:27;100339.69;;;5.96;100.00
71774;BME280;59607;52.130;5.430;2023-12-22T01:57:01;100341.47;;;5.95;100.00
71774;BME280;59607;52.130;5.430;2023-12-22T01:59:34;100344.22;;;5.93;100.00
71774;BME280;59607;52.130;5.430;2023-12-22T02:02:02;100365.84;;;5.94;100.00
71774;BME280;59607;52.130;5.430;2023-12-22T02:04:30;100369.44;;;5.93;100.00
71774;BME280;59607;52.130;5.430;2023-12-22T02:07:03;100352.19;;;5.92;100.00
71774;BME280;59607;52.130;5.430;2023-12-22T02:09:29;100351.06;;;5.95;100.00
71774;BME280;59607;52.130;5.430;2023-12-22T02:14:26;100351.31;;;6.01;100.00
71774;BME280;59607;52.130;5.430;2023-12-22T02:17:15;100346.66;;;6.05;100.00
71774;BME280;59607;52.130;5.430;2023-12-22T02:20:02;100343.19;;;6.14;100.00
71774;BME280;59607;52.130;5.430;2023-12-22T02:22:55;100323.69;;;6.19;100.00
71774;BME280;59607;52.130;5.430;2023-12-22T02:25:22;100328.75;;;6.20;100.00
71774;BME280;59607;52.130;5.430;2023-12-22T02:27:53;100314.09;;;6.19;100.00
71774;BME280;59607;52.130;5.430;2023-12-22T02:30:26;100312.59;;;6.16;100.00
71774;BME280;59607;52.130;5.430;2023-12-22T02:32:59;100327.56;;;6.14;100.00
71774;BME280;59607;52.130;5.430;2023-12-22T02:35:29;100316.19;;;6.15;100.00
71774;BME280;59607;52.130;5.430;2023-12-22T02:38:04;100312.31;;;6.20;100.00
71774;BME280;59607;52.130;5.430;2023-12-22T02:40:34;100322.59;;;6.21;100.00
71774;BME280;59607;52.130;5.430;2023-12-22T02:43:07;100305.03;;;6.23;100.00
71774;BME280;59607;52.130;5.430;2023-12-22T02:45:56;100293.66;;;6.24;100.00
71774;BME280;59607;52.130;5.430;2023-12-22T02:48:30;100295.13;;;6.27;100.00
71774;BME280;59607;52.130;5.430;2023-12-22T02:51:00;100307.25;;;6.36;100.00
71774;BME280;59607;52.130;5.430;2023-12-22T02:53:40;100288.66;;;6.49;100.00
71774;BME280;59607;52.130;5.430;2023-12-22T02:56:13;100282.41;;;6.60;100.00
71774;BME280;59607;52.130;5.430;2023-12-22T02:58:39;100292.75;;;6.70;100.00
71774;BME280;59607;52.130;5.430;2023-12-22T03:01:06;100300.47;;;6.80;100.00
71774;BME280;59607;52.130;5.430;2023-12-22T03:03:36;100296.16;;;6.89;100.00
71774;BME280;59607;52.130;5.430;2023-12-22T03:06:03;100314.94;;;6.93;100.00
71774;BME280;59607;52.130;5.430;2023-12-22T03:08:40;100299.78;;;6.96;100.00
71774;BME280;59607;52.130;5.430;2023-12-22T03:11:06;100314.00;;;7.02;100.00
71774;BME280;59607;52.130;5.430;2023-12-22T03:13:36;100329.19;;;7.07;100.00
71774;BME280;59607;52.130;5.430;2023-12-22T03:16:03;100316.53;;;7.12;100.00
71774;BME280;59607;52.130;5.430;2023-12-22T03:18:40;100337.28;;;7.22;100.00
71774;BME280;59607;52.130;5.430;2023-12-22T03:21:16;100333.25;;;7.27;100.00
71774;BME280;59607;52.130;5.430;2023-12-22T03:23:46;100327.25;;;7.35;100.00
71774;BME280;59607;52.130;5.430;2023-12-22T03:26:13;100341.78;;;7.38;100.00
71774;BME280;59607;52.130;5.430;2023-12-22T03:28:39;100345.41;;;7.45;100.00
71774;BME280;59607;52.130;5.430;2023-12-22T03:31:11;100343.00;;;7.52;100.00
71774;BME280;59607;52.130;5.430;2023-12-22T03:33:38;100340.59;;;7.59;100.00
71774;BME280;59607;52.130;5.430;2023-12-22T03:36:07;100347.66;;;7.67;100.00
71774;BME280;59607;52.130;5.430;2023-12-22T03:38:35;100375.06;;;7.71;100.00
71774;BME280;59607;52.130;5.430;2023-12-22T03:41:01;100385.91;;;7.58;100.00
71774;BME280;59607;52.130;5.430;2023-12-22T03:43:30;100392.50;;;7.17;100.00
71774;BME280;59607;52.130;5.430;2023-12-22T03:46:01;100418.00;;;6.87;100.00
71774;BME280;59607;52.130;5.430;2023-12-22T03:48:29;100392.53;;;6.62;100.00
71774;BME280;59607;52.130;5.430;2023-12-22T03:51:05;100397.63;;;6.36;100.00
71774;BME280;59607;52.130;5.430;2023-12-22T03:53:31;100384.13;;;6.22;100.00
71774;BME280;59607;52.130;5.430;2023-12-22T03:56:00;100380.44;;;6.15;100.00
71774;BME280;59607;52.130;5.430;2023-12-22T03:58:31;100398.97;;;6.12;100.00
71774;BME280;59607;52.130;5.430;2023-12-22T04:01:00;100381.84;;;6.09;100.00
71774;BME280;59607;52.130;5.430;2023-12-22T04:03:30;100397.03;;;6.14;100.00
71774;BME280;59607;52.130;5.430;2023-12-22T04:06:15;100385.00;;;6.13;100.00
71774;BME280;59607;52.130;5.430;2023-12-22T04:08:43;100378.00;;;6.13;100.00
71774;BME280;59607;52.130;5.430;2023-12-22T04:11:12;100385.38;;;6.18;100.00
71774;BME280;59607;52.130;5.430;2023-12-22T04:13:39;100388.66;;;6.20;100.00
71774;BME280;59607;52.130;5.430;2023-12-22T04:16:10;100388.34;;;6.23;100.00
71774;BME280;59607;52.130;5.430;2023-12-22T04:18:36;100386.28;;;6.27;100.00
71774;BME280;59607;52.130;5.430;2023-12-22T04:21:03;100394.94;;;6.27;100.00
71774;BME280;59607;52.130;5.430;2023-12-22T04:23:30;100394.78;;;6.29;100.00
71774;BME280;59607;52.130;5.430;2023-12-22T04:26:02;100392.97;;;6.29;100.00
71774;BME280;59607;52.130;5.430;2023-12-22T04:28:29;100399.47;;;6.25;100.00
71774;BME280;59607;52.130;5.430;2023-12-22T04:30:58;100390.00;;;6.24;100.00
71774;BME280;59607;52.130;5.430;2023-12-22T04:33:28;100396.56;;;6.28;100.00
71774;BME280;59607;52.130;5.430;2023-12-22T04:35:55;100393.38;;;6.35;100.00
71774;BME280;59607;52.130;5.430;2023-12-22T04:38:27;100385.94;;;6.40;100.00
71774;BME280;59607;52.130;5.430;2023-12-22T04:40:53;100381.41;;;6.42;100.00
71774;BME280;59607;52.130;5.430;2023-12-22T04:43:29;100386.47;;;6.44;100.00
71774;BME280;59607;52.130;5.430;2023-12-22T04:45:56;100390.84;;;6.43;100.00
71774;BME280;59607;52.130;5.430;2023-12-22T04:48:22;100399.34;;;6.45;100.00
71774;BME280;59607;52.130;5.430;2023-12-22T04:50:53;100402.34;;;6.50;100.00
71774;BME280;59607;52.130;5.430;2023-12-22T04:53:19;100403.00;;;6.52;100.00
71774;BME280;59607;52.130;5.430;2023-12-22T04:55:52;100410.53;;;6.56;100.00
71774;BME280;59607;52.130;5.430;2023-12-22T04:58:21;100397.50;;;6.56;100.00
71774;BME280;59607;52.130;5.430;2023-12-22T05:00:48;100381.22;;;6.53;100.00
71774;BME280;59607;52.130;5.430;2023-12-22T05:03:29;100397.50;;;6.56;100.00
71774;BME280;59607;52.130;5.430;2023-12-22T05:06:01;100391.34;;;6.57;100.00
71774;BME280;59607;52.130;5.430;2023-12-22T05:08:27;100391.84;;;6.60;100.00
71774;BME280;59607;52.130;5.430;2023-12-22T05:11:00;100381.13;;;6.63;100.00
71774;BME280;59607;52.130;5.430;2023-12-22T05:13:29;100381.66;;;6.67;100.00
71774;BME280;59607;52.130;5.430;2023-12-22T05:15:55;100379.56;;;6.71;100.00
71774;BME280;59607;52.130;5.430;2023-12-22T05:18:23;100379.94;;;6.76;100.00
71774;BME280;59607;52.130;5.430;2023-12-22T05:20:59;100376.75;;;6.82;100.00
71774;BME280;59607;52.130;5.430;2023-12-22T05:23:25;100367.50;;;6.88;100.00
71774;BME280;59607;52.130;5.430;2023-12-22T05:25:52;100359.91;;;6.95;100.00
71774;BME280;59607;52.130;5.430;2023-12-22T05:28:18;100360.50;;;7.07;100.00
71774;BME280;59607;52.130;5.430;2023-12-22T05:30:47;100373.59;;;7.15;100.00
71774;BME280;59607;52.130;5.430;2023-12-22T05:33:15;100387.66;;;7.22;100.00
71774;BME280;59607;52.130;5.430;2023-12-22T05:35:42;100370.94;;;7.33;100.00
71774;BME280;59607;52.130;5.430;2023-12-22T05:38:15;100371.28;;;7.38;100.00
71774;BME280;59607;52.130;5.430;2023-12-22T05:40:44;100361.38;;;7.42;100.00
71774;BME280;59607;52.130;5.430;2023-12-22T05:43:20;100364.19;;;7.49;100.00
71774;BME280;59607;52.130;5.430;2023-12-22T05:45:47;100359.50;;;7.52;100.00
71774;BME280;59607;52.130;5.430;2023-12-22T05:48:16;100353.66;;;7.59;100.00
71774;BME280;59607;52.130;5.430;2023-12-22T05:50:55;100359.88;;;7.66;100.00
71774;BME280;59607;52.130;5.430;2023-12-22T05:53:41;100366.44;;;7.70;100.00
71774;BME280;59607;52.130;5.430;2023-12-22T05:56:27;100359.91;;;7.74;100.00
71774;BME280;59607;52.130;5.430;2023-12-22T05:58:54;100375.28;;;7.77;100.00
71774;BME280;59607;52.130;5.430;2023-12-22T06:01:24;100375.94;;;7.80;100.00
71774;BME280;59607;52.130;5.430;2023-12-22T06:03:53;100374.28;;;7.78;100.00
71774;BME280;59607;52.130;5.430;2023-12-22T06:06:22;100374.78;;;7.82;100.00
71774;BME280;59607;52.130;5.430;2023-12-22T06:09:09;100366.00;;;7.83;100.00
71774;BME280;59607;52.130;5.430;2023-12-22T06:11:41;100366.16;;;7.82;100.00
71774;BME280;59607;52.130;5.430;2023-12-22T06:14:18;100347.72;;;7.83;100.00
71774;BME280;59607;52.130;5.430;2023-12-22T06:16:44;100353.44;;;7.87;100.00
71774;BME280;59607;52.130;5.430;2023-12-22T06:19:14;100358.50;;;7.88;100.00
71774;BME280;59607;52.130;5.430;2023-12-22T06:21:41;100349.41;;;7.93;100.00
71774;BME280;59607;52.130;5.430;2023-12-22T06:24:07;100367.19;;;7.97;100.00
71774;BME280;59607;52.130;5.430;2023-12-22T06:26:37;100371.28;;;8.00;100.00
71774;BME280;59607;52.130;5.430;2023-12-22T06:29:05;100371.94;;;8.02;100.00
71774;BME280;59607;52.130;5.430;2023-12-22T06:31:31;100353.66;;;8.02;100.00
71774;BME280;59607;52.130;5.430;2023-12-22T06:34:07;100350.72;;;8.05;100.00
71774;BME280;59607;52.130;5.430;2023-12-22T06:36:34;100350.91;;;8.03;100.00
71774;BME280;59607;52.130;5.430;2023-12-22T06:39:06;100347.97;;;8.07;100.00
71774;BME280;59607;52.130;5.430;2023-12-22T06:41:36;100359.91;;;8.09;100.00
71774;BME280;59607;52.130;5.430;2023-12-22T06:44:06;100352.56;;;8.13;100.00
71774;BME280;59607;52.130;5.430;2023-12-22T06:46:33;100361.72;;;8.17;100.00
71774;BME280;59607;52.130;5.430;2023-12-22T06:49:00;100359.75;;;8.19;100.00
71774;BME280;59607;52.130;5.430;2023-12-22T06:51:33;100353.41;;;8.22;100.00
71774;BME280;59607;52.130;5.430;2023-12-22T06:54:03;100361.75;;;8.25;100.00
71774;BME280;59607;52.130;5.430;2023-12-22T06:56:42;100353.59;;;8.29;100.00
71774;BME280;59607;52.130;5.430;2023-12-22T06:59:09;100361.28;;;8.30;100.00
71774;BME280;59607;52.130;5.430;2023-12-22T07:01:46;100356.84;;;8.31;100.00
71774;BME280;59607;52.130;5.430;2023-12-22T07:04:28;100353.13;;;8.33;100.00
71774;BME280;59607;52.130;5.430;2023-12-22T07:07:01;100354.75;;;8.34;100.00
71774;BME280;59607;52.130;5.430;2023-12-22T07:09:30;100349.19;;;8.37;100.00
71774;BME280;59607;52.130;5.430;2023-12-22T07:12:03;100352.63;;;8.38;100.00
71774;BME280;59607;52.130;5.430;2023-12-22T07:14:34;100343.63;;;8.40;100.00
71774;BME280;59607;52.130;5.430;2023-12-22T07:17:04;100340.06;;;8.42;100.00
71774;BME280;59607;52.130;5.430;2023-12-22T07:19:31;100334.00;;;8.41;100.00
71774;BME280;59607;52.130;5.430;2023-12-22T07:21:58;100346.09;;;8.42;100.00
71774;BME280;59607;52.130;5.430;2023-12-22T07:24:27;100358.03;;;8.45;100.00
71774;BME280;59607;52.130;5.430;2023-12-22T07:26:55;100356.06;;;8.47;100.00
71774;BME280;59607;52.130;5.430;2023-12-22T07:29:21;100373.41;;;8.48;100.00
71774;BME280;59607;52.130;5.430;2023-12-22T07:31:53;100361.94;;;8.49;100.00
71774;BME280;59607;52.130;5.430;2023-12-22T07:34:22;100359.00;;;8.52;100.00
71774;BME280;59607;52.130;5.430;2023-12-22T07:36:49;100360.53;;;8.55;100.00
71774;BME280;59607;52.130;5.430;2023-12-22T07:39:33;100367.22;;;8.57;100.00
71774;BME280;59607;52.130;5.430;2023-12-22T07:42:07;100355.78;;;8.58;100.00
71774;BME280;59607;52.130;5.430;2023-12-22T07:44:38;100341.59;;;8.61;100.00
71774;BME280;59607;52.130;5.430;2023-12-22T07:47:07;100354.66;;;8.61;100.00
71774;BME280;59607;52.130;5.430;2023-12-22T07:49:38;100366.06;;;8.60;100.00
71774;BME280;59607;52.130;5.430;2023-12-22T07:52:16;100360.50;;;8.46;100.00
71774;BME280;59607;52.130;5.430;2023-12-22T07:57:38;100375.59;;;8.18;100.00
71774;BME280;59607;52.130;5.430;2023-12-22T08:00:11;100361.22;;;8.13;100.00
71774;BME280;59607;52.130;5.430;2023-12-22T08:02:40;100362.53;;;8.09;100.00
71774;BME280;59607;52.130;5.430;2023-12-22T08:05:07;100382.41;;;8.02;100.00
71774;BME280;59607;52.130;5.430;2023-12-22T08:07:40;100378.97;;;8.01;100.00
71774;BME280;59607;52.130;5.430;2023-12-22T08:10:06;100378.63;;;8.05;100.00
71774;BME280;59607;52.130;5.430;2023-12-22T08:12:33;100376.84;;;8.05;100.00
71774;BME280;59607;52.130;5.430;2023-12-22T08:15:03;100366.09;;;8.08;100.00
71774;BME280;59607;52.130;5.430;2023-12-22T08:17:30;100371.00;;;8.11;100.00
71774;BME280;59607;52.130;5.430;2023-12-22T08:19:59;100364.00;;;8.12;100.00
71774;BME280;59607;52.130;5.430;2023-12-22T08:22:43;100367.09;;;8.15;100.00
71774;BME280;59607;52.130;5.430;2023-12-22T08:25:17;100356.97;;;8.21;100.00
71774;BME280;59607;52.130;5.430;2023-12-22T08:27:49;100349.66;;;8.24;100.00
71774;BME280;59607;52.130;5.430;2023-12-22T08:30:16;100343.47;;;8.25;100.00
71774;BME280;59607;52.130;5.430;2023-12-22T08:32:43;100334.63;;;8.26;100.00
71774;BME280;59607;52.130;5.430;2023-12-22T08:35:15;100322.25;;;8.29;100.00
71774;BME280;59607;52.130;5.430;2023-12-22T08:37:43;100331.88;;;8.28;100.00
71774;BME280;59607;52.130;5.430;2023-12-22T08:40:17;100322.41;;;8.27;100.00
71774;BME280;59607;52.130;5.430;2023-12-22T08:42:44;100321.41;;;8.28;100.00
71774;BME280;59607;52.130;5.430;2023-12-22T08:45:10;100324.84;;;8.29;100.00
71774;BME280;59607;52.130;5.430;2023-12-22T08:47:40;100312.59;;;8.29;100.00
71774;BME280;59607;52.130;5.430;2023-12-22T08:50:06;100331.88;;;8.28;100.00
71774;BME280;59607;52.130;5.430;2023-12-22T08:52:37;100314.09;;;8.32;100.00
71774;BME280;59607;52.130;5.430;2023-12-22T08:55:04;100311.47;;;8.32;100.00
71774;BME280;59607;52.130;5.430;2023-12-22T08:57:31;100314.72;;;8.34;100.00
71774;BME280;59607;52.130;5.430;2023-12-22T08:59:59;100317.03;;;8.37;100.00
71774;BME280;59607;52.130;5.430;2023-12-22T09:02:27;100307.72;;;8.43;100.00
71774;BME280;59607;52.130;5.430;2023-12-22T09:04:53;100313.91;;;8.50;100.00
71774;BME280;59607;52.130;5.430;2023-12-22T09:07:23;100314.41;;;8.54;100.00
71774;BME280;59607;52.130;5.430;2023-12-22T09:09:51;100323.28;;;8.61;100.00
71774;BME280;59607;52.130;5.430;2023-12-22T09:12:17;100332.75;;;8.62;100.00
71774;BME280;59607;52.130;5.430;2023-12-22T09:14:50;100314.47;;;8.70;100.00
71774;BME280;59607;52.130;5.430;2023-12-22T09:17:19;100327.22;;;8.73;100.00
71774;BME280;59607;52.130;5.430;2023-12-22T09:19:46;100319.03;;;8.76;100.00
71774;BME280;59607;52.130;5.430;2023-12-22T09:22:26;100321.66;;;8.76;100.00
71774;BME280;59607;52.130;5.430;2023-12-22T09:25:07;100339.63;;;8.71;100.00
71774;BME280;59607;52.130;5.430;2023-12-22T09:27:37;100336.69;;;8.58;100.00
71774;BME280;59607;52.130;5.430;2023-12-22T09:30:08;100330.91;;;8.46;100.00
71774;BME280;59607;52.130;5.430;2023-12-22T09:32:44;100335.16;;;8.38;100.00
71774;BME280;59607;52.130;5.430;2023-12-22T09:35:11;100356.03;;;8.30;100.00
71774;BME280;59607;52.130;5.430;2023-12-22T09:37:38;100346.69;;;8.19;100.00
71774;BME280;59607;52.130;5.430;2023-12-22T09:40:07;100335.00;;;7.88;100.00
71774;BME280;59607;52.130;5.430;2023-12-22T09:42:40;100341.00;;;7.81;100.00
71774;BME280;59607;52.130;5.430;2023-12-22T09:45:16;100331.56;;;7.80;100.00
71774;BME280;59607;52.130;5.430;2023-12-22T09:48:00;100335.00;;;7.80;100.00
71774;BME280;59607;52.130;5.430;2023-12-22T09:50:28;100345.59;;;7.87;100.00
71774;BME280;59607;52.130;5.430;2023-12-22T09:53:00;100314.09;;;7.88;100.00
71774;BME280;59607;52.130;5.430;2023-12-22T09:55:35;100324.44;;;7.98;100.00
71774;BME280;59607;52.130;5.430;2023-12-22T09:58:02;100323.78;;;8.05;100.00
71774;BME280;59607;52.130;5.430;2023-12-22T10:00:39;100318.44;;;8.14;100.00
71774;BME280;59607;52.130;5.430;2023-12-22T10:03:06;100316.66;;;8.23;100.00
71774;BME280;59607;52.130;5.430;2023-12-22T10:05:35;100323.38;;;8.34;100.00
71774;BME280;59607;52.130;5.430;2023-12-22T10:08:02;100320.63;;;8.44;100.00
71774;BME280;59607;52.130;5.430;2023-12-22T10:10:32;100325.56;;;8.56;100.00
71774;BME280;59607;52.130;5.430;2023-12-22T10:13:01;100331.94;;;8.70;100.00
71774;BME280;59607;52.130;5.430;2023-12-22T10:15:36;100336.06;;;8.81;100.00
71774;BME280;59607;52.130;5.430;2023-12-22T10:18:09;100330.63;;;8.91;100.00
71774;BME280;59607;52.130;5.430;2023-12-22T10:20:36;100328.19;;;8.97;100.00
71774;BME280;59607;52.130;5.430;2023-12-22T10:23:05;100319.03;;;9.01;100.00
71774;BME280;59607;52.130;5.430;2023-12-22T10:25:34;100307.75;;;9.01;100.00
71774;BME280;59607;52.130;5.430;2023-12-22T10:28:01;100317.22;;;9.02;100.00
71774;BME280;59607;52.130;5.430;2023-12-22T10:30:34;100338.16;;;9.02;100.00
71774;BME280;59607;52.130;5.430;2023-12-22T10:33:04;100325.22;;;9.00;100.00
71774;BME280;59607;52.130;5.430;2023-12-22T10:35:45;100326.22;;;8.99;100.00
71774;BME280;59607;52.130;5.430;2023-12-22T10:38:11;100315.59;;;9.01;100.00
71774;BME280;59607;52.130;5.430;2023-12-22T10:40:38;100331.63;;;9.06;100.00
71774;BME280;59607;52.130;5.430;2023-12-22T10:43:04;100337.34;;;9.10;100.00
71774;BME280;59607;52.130;5.430;2023-12-22T10:45:31;100340.41;;;9.13;100.00
71774;BME280;59607;52.130;5.430;2023-12-22T10:48:04;100331.44;;;9.16;100.00
71774;BME280;59607;52.130;5.430;2023-12-22T10:50:31;100338.78;;;9.21;100.00
71774;BME280;59607;52.130;5.430;2023-12-22T10:52:58;100334.69;;;9.26;100.00
71774;BME280;59607;52.130;5.430;2023-12-22T10:55:25;100339.91;;;9.35;100.00
71774;BME280;59607;52.130;5.430;2023-12-22T10:57:53;100341.84;;;9.41;100.00
71774;BME280;59607;52.130;5.430;2023-12-22T11:00:20;100328.59;;;9.43;100.00
71774;BME280;59607;52.130;5.430;2023-12-22T11:02:57;100321.91;;;9.40;100.00
71774;BME280;59607;52.130;5.430;2023-12-22T11:05:32;100312.88;;;9.43;100.00
71774;BME280;59607;52.130;5.430;2023-12-22T11:08:04;100319.78;;;9.44;100.00
71774;BME280;59607;52.130;5.430;2023-12-22T11:10:44;100315.66;;;9.49;100.00
71774;BME280;59607;52.130;5.430;2023-12-22T11:13:30;100305.50;;;9.55;100.00
71774;BME280;59607;52.130;5.430;2023-12-22T11:15:57;100318.91;;;9.60;100.00
71774;BME280;59607;52.130;5.430;2023-12-22T11:18:24;100321.00;;;9.65;100.00
71774;BME280;59607;52.130;5.430;2023-12-22T11:20:55;100299.72;;;9.68;100.00
71774;BME280;59607;52.130;5.430;2023-12-22T11:23:28;100320.16;;;9.72;100.00
71774;BME280;59607;52.130;5.430;2023-12-22T11:26:03;100316.19;;;9.77;100.00
71774;BME280;59607;52.130;5.430;2023-12-22T11:28:32;100299.88;;;9.74;100.00
71774;BME280;59607;52.130;5.430;2023-12-22T11:31:14;100318.06;;;9.68;100.00
71774;BME280;59607;52.130;5.430;2023-12-22T11:33:49;100298.91;;;9.67;100.00
71774;BME280;59607;52.130;5.430;2023-12-22T11:36:31;100300.38;;;9.70;100.00
71774;BME280;59607;52.130;5.430;2023-12-22T11:38:59;100306.06;;;9.73;100.00
71774;BME280;59607;52.130;5.430;2023-12-22T11:41:34;100291.66;;;9.78;100.00
71774;BME280;59607;52.130;5.430;2023-12-22T11:44:07;100307.03;;;9.81;100.00
71774;BME280;59607;52.130;5.430;2023-12-22T11:46:36;100292.94;;;9.82;100.00
71774;BME280;59607;52.130;5.430;2023-12-22T11:49:03;100286.91;;;9.81;100.00
71774;BME280;59607;52.130;5.430;2023-12-22T11:51:40;100290.97;;;9.84;100.00
71774;BME280;59607;52.130;5.430;2023-12-22T12:00:03;100280.41;;;10.00;100.00
71774;BME280;59607;52.130;5.430;2023-12-22T12:02:37;100289.72;;;10.03;100.00
71774;BME280;59607;52.130;5.430;2023-12-22T12:05:10;100278.41;;;10.03;100.00
71774;BME280;59607;52.130;5.430;2023-12-22T12:07:45;100276.63;;;10.03;100.00
71774;BME280;59607;52.130;5.430;2023-12-22T12:10:21;100264.34;;;10.04;100.00
71774;BME280;59607;52.130;5.430;2023-12-22T12:13:15;100256.31;;;10.05;100.00
71774;BME280;59607;52.130;5.430;2023-12-22T12:15:49;100251.88;;;10.06;100.00
71774;BME280;59607;52.130;5.430;2023-12-22T12:18:22;100238.78;;;10.06;100.00
71774;BME280;59607;52.130;5.430;2023-12-22T12:20:55;100245.66;;;10.07;100.00
71774;BME280;59607;52.130;5.430;2023-12-22T12:23:28;100246.28;;;10.09;100.00
71774;BME280;59607;52.130;5.430;2023-12-22T12:25:57;100249.56;;;10.11;100.00
71774;BME280;59607;52.130;5.430;2023-12-22T12:28:31;100247.75;;;10.11;100.00
71774;BME280;59607;52.130;5.430;2023-12-22T12:31:06;100244.13;;;10.12;100.00
71774;BME280;59607;52.130;5.430;2023-12-22T12:33:37;100256.09;;;10.15;100.00
71774;BME280;59607;52.130;5.430;2023-12-22T12:36:04;100257.72;;;10.16;100.00
71774;BME280;59607;52.130;5.430;2023-12-22T12:41:31;100238.09;;;10.12;100.00
71774;BME280;59607;52.130;5.430;2023-12-22T12:44:03;100215.84;;;10.08;100.00
71774;BME280;59607;52.130;5.430;2023-12-22T12:46:36;100240.72;;;10.12;100.00
71774;BME280;59607;52.130;5.430;2023-12-22T12:49:14;100255.25;;;10.15;100.00
71774;BME280;59607;52.130;5.430;2023-12-22T12:51:47;100241.63;;;10.19;100.00
71774;BME280;59607;52.130;5.430;2023-12-22T12:54:15;100262.91;;;10.24;100.00
71774;BME280;59607;52.130;5.430;2023-12-22T12:56:46;100253.06;;;10.27;100.00
71774;BME280;59607;52.130;5.430;2023-12-22T12:59:17;100259.56;;;10.31;100.00
71774;BME280;59607;52.130;5.430;2023-12-22T13:02:02;100256.94;;;10.31;100.00
71774;BME280;59607;52.130;5.430;2023-12-22T13:04:54;100259.75;;;10.29;100.00
71774;BME280;59607;52.130;5.430;2023-12-22T13:07:26;100266.78;;;10.29;100.00
71774;BME280;59607;52.130;5.430;2023-12-22T13:09:56;100264.34;;;10.27;100.00
71774;BME280;59607;52.130;5.430;2023-12-22T13:12:23;100268.13;;;10.24;100.00
71774;BME280;59607;52.130;5.430;2023-12-22T13:15:02;100265.53;;;10.24;100.00
71774;BME280;59607;52.130;5.430;2023-12-22T13:17:29;100278.63;;;10.24;100.00
71774;BME280;59607;52.130;5.430;2023-12-22T13:20:14;100277.63;;;10.25;100.00
71774;BME280;59607;52.130;5.430;2023-12-22T13:22:44;100276.81;;;10.25;100.00